Change the Weather History Date:

Friday, November 22, 2013

  Actual Average Record
Temperature  
Mean Temperature 42 °F -  
Max Temperature 48 °F 44 °F 59 °F (2007)
Min Temperature 37 °F 28 °F 15 °F (2014)
Degree Days  
Heating Degree Days 22    
Moisture  
Dew Point 43 °F    
Average Humidity 95    
Maximum Humidity 100    
Minimum Humidity 76    
Precipitation  
Precipitation 0.15 in - - ()
Sea Level Pressure  
Sea Level Pressure 30.11 in    
Wind  
Wind Speed 3 mph (SSW)    
Max Wind Speed 6 mph    
Max Gust Speed -    
Visibility 6 miles    
Events Fog , Rain    
Averages and records for this station are not official NWS values.
T = Trace of Precipitation, MM = Missing Value Source: NWS Daily Summary

Daily Weather History Graph

Daily Weather History Graph

Search for Another Location

Airport or City:

Trip Planner

Search our weather history database for the weather conditions in past years. The results will help you decide how hot, cold, wet, or windy it might be!

Date:

Astronomy

Nov. 22, 2013 Rise Set
Actual Time 6:49 AM EST 4:23 PM EST
Civil Twilight 6:18 AM EST 4:53 PM EST
Nautical Twilight 5:44 AM EST 5:28 PM EST
Astronomical Twilight 5:10 AM EST 6:01 PM EST
Moon 8:54 PM EST (11/22) 10:29 AM EST (11/22)
Length of Visible Light 10h 35m
Length of Day
9h 33m
Waning Gibbous, 78% of the Moon is Illuminated
Nov 22
Waning Gibbous
Nov 25
Last Quarter
Dec 2
New
Dec 9
First Quarter
Dec 17
Full

Hourly Weather History & Observations

Time (EST) Temp. Windchill Dew Point Humidity Pressure Visibility Wind Dir Wind Speed Gust Speed Precip Events Conditions
12:58 AM 37.6 °F - 31.8 °F 80% 30.38 in 10.0 mi Calm Calm - N/A   Overcast
1:58 AM 40.6 °F 38.6 °F 34.0 °F 77% 30.36 in 10.0 mi South 3.5 mph - N/A   Overcast
2:18 AM 41.0 °F 38.0 °F 33.8 °F 76% 30.32 in 10.0 mi South 4.6 mph - N/A   Overcast
2:58 AM 41.2 °F 39.2 °F 35.1 °F 79% 30.32 in 10.0 mi SSE 3.5 mph - N/A   Overcast
3:48 AM 41.0 °F - 35.6 °F 81% 30.28 in 10.0 mi SSE 2.3 mph - N/A   Overcast
3:57 AM 41.0 °F - 35.6 °F 81% 30.28 in 10.0 mi SSE 2.3 mph - N/A   Mostly Cloudy
3:58 AM 41.0 °F - 35.6 °F 81% 30.31 in 10.0 mi SSE 2.3 mph - 0.00 in   Mostly Cloudy
3:59 AM 41.0 °F - 35.6 °F 81% 30.28 in 10.0 mi SSE 2.3 mph - N/A   Mostly Cloudy
4:44 AM 41.0 °F - 37.4 °F 87% 30.26 in 10.0 mi SE 2.3 mph - N/A   Overcast
4:58 AM 40.8 °F - 37.4 °F 88% 30.27 in 10.0 mi Calm Calm - 0.00 in   Overcast
5:58 AM 40.6 °F - 37.9 °F 90% 30.27 in 10.0 mi ESE 2.3 mph - N/A   Overcast
6:10 AM 41.0 °F - 39.2 °F 93% 30.23 in 10.0 mi SE 2.3 mph - N/A   Overcast
6:24 AM 41.0 °F - 39.2 °F 93% 30.22 in 10.0 mi SE 2.3 mph - N/A   Overcast
6:33 AM 42.8 °F 41.1 °F 39.2 °F 87% 30.22 in 10.0 mi SSE 3.5 mph - N/A   Overcast
6:35 AM 42.8 °F 41.1 °F 39.2 °F 87% 30.22 in 10.0 mi SSE 3.5 mph - N/A   Overcast
6:58 AM 42.4 °F - 41.4 °F 96% 30.25 in 10.0 mi Calm Calm - 0.00 in Rain Light Rain
7:27 AM 42.8 °F 41.1 °F 41.0 °F 93% 30.20 in 10.0 mi South 3.5 mph - N/A Rain Light Rain
7:41 AM 42.8 °F 40.1 °F 41.0 °F 93% 30.20 in 7.0 mi SSE 4.6 mph - N/A Rain Light Rain
7:44 AM 42.8 °F 40.1 °F 41.0 °F 93% 30.20 in 7.0 mi South 4.6 mph - N/A Rain Light Rain
7:47 AM 42.8 °F 40.1 °F 41.0 °F 93% 30.20 in 7.0 mi SSE 4.6 mph - N/A Rain Light Rain
7:58 AM 42.6 °F 39.9 °F 42.1 °F 98% 30.22 in 10.0 mi SSE 4.6 mph - 0.03 in Rain Light Rain
8:09 AM 42.8 °F 41.1 °F 42.8 °F 100% 30.19 in 7.0 mi SSE 3.5 mph - N/A Rain Light Rain
8:23 AM 42.8 °F 41.1 °F 42.8 °F 100% 30.18 in 5.0 mi South 3.5 mph - N/A Rain Light Rain
8:32 AM 42.8 °F 41.1 °F 42.8 °F 100% 30.17 in 3.0 mi South 3.5 mph - N/A Rain Light Rain
8:34 AM 42.8 °F 41.1 °F 42.8 °F 100% 30.17 in 2.5 mi South 3.5 mph - N/A Rain Light Rain
8:44 AM 42.8 °F 40.1 °F 42.8 °F 100% 30.17 in 3.0 mi South 4.6 mph - N/A Rain Light Rain
8:58 AM 43.7 °F 42.1 °F 43.5 °F 99% 30.19 in 3.0 mi South 3.5 mph - 0.07 in Rain Light Rain
8:59 AM 44.6 °F 42.2 °F 42.8 °F 93% 30.16 in 2.5 mi South 4.6 mph - N/A Rain Light Rain
9:00 AM 44.6 °F 42.2 °F 42.8 °F 93% 30.16 in 3.0 mi South 4.6 mph - N/A Rain Light Rain
9:17 AM 44.6 °F 42.2 °F 44.6 °F 100% 30.15 in 5.0 mi South 4.6 mph - N/A Rain Light Rain
9:18 AM 44.6 °F 42.2 °F 44.6 °F 100% 30.15 in 5.0 mi South 4.6 mph - N/A Rain Light Rain
9:19 AM 44.6 °F 42.2 °F 44.6 °F 100% 30.15 in 6.0 mi South 4.6 mph - N/A Rain Light Rain
9:25 AM 44.6 °F 42.2 °F 44.6 °F 100% 30.15 in 6.0 mi South 4.6 mph - N/A Rain Light Rain
9:30 AM 44.6 °F 42.2 °F 44.6 °F 100% 30.15 in 5.0 mi SSW 4.6 mph - N/A Rain Light Rain
9:42 AM 44.6 °F 42.2 °F 44.6 °F 100% 30.14 in 2.5 mi South 4.6 mph - N/A Rain Light Rain
9:51 AM 44.6 °F 42.2 °F 44.6 °F 100% 30.14 in 3.0 mi South 4.6 mph - N/A Rain Light Rain
9:58 AM 44.4 °F 42.9 °F 44.2 °F 99% 30.17 in 5.0 mi SSW 3.5 mph - 0.04 in Rain Light Rain
10:04 AM 44.6 °F 43.1 °F 44.6 °F 100% 30.14 in 2.0 mi SW 3.5 mph - N/A Rain Light Rain
10:22 AM 44.6 °F 42.2 °F 44.6 °F 100% 30.13 in 2.5 mi SSW 4.6 mph - N/A   Light Drizzle
10:44 AM 44.6 °F 43.1 °F 44.6 °F 100% 30.10 in 2.5 mi SSW 3.5 mph - N/A   Overcast
10:58 AM 44.8 °F - 44.4 °F 99% 30.12 in 3.0 mi SSW 2.3 mph - 0.01 in   Overcast
11:22 AM 44.6 °F - 44.6 °F 100% 30.07 in 2.0 mi Calm Calm - N/A   Overcast
11:55 AM 45.7 °F 44.4 °F 45.5 °F 99% 30.09 in 2.5 mi SW 3.5 mph - 0.00 in   Overcast
12:14 PM 46.4 °F 45.2 °F 46.4 °F 100% 30.05 in 1.5 mi SW 3.5 mph - N/A   Overcast
12:58 PM 47.3 °F - 46.9 °F 99% 30.04 in 2.5 mi SSW 3.5 mph - N/A   Overcast
1:09 PM 48.2 °F - 46.4 °F 93% 30.01 in 2.5 mi SW 3.5 mph - N/A   Overcast
1:48 PM 46.4 °F 44.3 °F 46.4 °F 100% 30.02 in 2.5 mi WNW 4.6 mph - N/A   Overcast
1:58 PM 46.9 °F - 46.6 °F 99% 30.04 in 3.0 mi West 5.8 mph - N/A   Overcast
2:58 PM 48.2 °F - 48.0 °F 99% 30.01 in 4.0 mi SW 3.5 mph - N/A   Overcast
3:58 PM 48.2 °F - 47.7 °F 98% 30.01 in 5.0 mi WNW 3.5 mph - N/A   Overcast
4:15 PM 46.4 °F 45.2 °F 46.4 °F 100% 29.98 in 4.0 mi WNW 3.5 mph - N/A   Overcast
4:34 PM 46.4 °F - 46.4 °F 100% 29.96 in 4.0 mi Calm Calm - N/A   Overcast
4:58 PM 45.0 °F - 44.8 °F 99% 29.99 in 3.0 mi NNE 2.3 mph - N/A   Overcast
5:23 PM 44.6 °F - 44.6 °F 100% 29.94 in 2.0 mi Calm Calm - N/A   Mostly Cloudy
5:58 PM 43.0 °F - 42.6 °F 99% 29.98 in 2.0 mi Calm Calm - N/A Fog Mostly Cloudy
6:18 PM 42.8 °F - 42.8 °F 100% 29.92 in 0.5 mi Calm Calm - N/A Fog Fog
6:58 PM 41.2 °F - 41.0 °F 99% 29.97 in 1.5 mi Calm Calm - N/A Fog Mostly Cloudy
7:58 PM 42.4 °F 39.6 °F 42.1 °F 99% 29.94 in 1.8 mi SW 4.6 mph - N/A Fog Mostly Cloudy
8:12 PM 44.6 °F 43.1 °F 44.6 °F 100% 29.90 in 3.0 mi SSW 3.5 mph - N/A Fog Overcast
8:58 PM 44.6 °F 43.1 °F 44.6 °F 100% 29.91 in 4.0 mi SSE 3.5 mph - N/A Fog Overcast
9:58 PM 44.4 °F - 44.2 °F 99% 29.89 in 4.0 mi Variable 1.2 mph - N/A Fog Overcast
10:58 PM 45.0 °F - 44.6 °F 99% 29.87 in 7.0 mi Calm Calm - N/A   Overcast
11:53 PM 46.4 °F 44.3 °F 46.4 °F 100% 29.85 in 7.0 mi West 4.6 mph - N/A   Light Drizzle
11:54 PM 46.4 °F 44.3 °F 46.4 °F 100% 29.85 in 7.0 mi WSW 4.6 mph - N/A   Light Drizzle
11:55 PM 46.4 °F 43.5 °F 46.4 °F 100% 29.85 in 7.0 mi WSW 5.8 mph - N/A   Light Drizzle
11:56 PM 46.4 °F 43.5 °F 46.4 °F 100% 29.85 in 7.0 mi West 5.8 mph - N/A   Light Drizzle
11:58 PM 46.4 °F 44.3 °F 46.4 °F 100% 29.87 in 7.0 mi West 4.6 mph - 0.00 in   Light Drizzle
11:59 PM 46.4 °F 43.5 °F 46.4 °F 100% 29.85 in 7.0 mi West 5.8 mph - N/A   Light Drizzle